sensor_id;sensor_type;location;lat;lon;timestamp;temperature;humidity
17632;DHT22;8934;51.194;17.150;2023-05-10T00:02:43;6.80;99.90
17632;DHT22;8934;51.194;17.150;2023-05-10T00:05:30;6.70;99.90
17632;DHT22;8934;51.194;17.150;2023-05-10T00:08:18;6.70;99.90
17632;DHT22;8934;51.194;17.150;2023-05-10T00:11:06;6.60;99.90
17632;DHT22;8934;51.194;17.150;2023-05-10T00:13:53;6.60;99.90
17632;DHT22;8934;51.194;17.150;2023-05-10T00:16:40;6.50;99.90
17632;DHT22;8934;51.194;17.150;2023-05-10T00:19:29;6.50;99.90
17632;DHT22;8934;51.194;17.150;2023-05-10T00:22:17;6.50;99.90
17632;DHT22;8934;51.194;17.150;2023-05-10T00:25:06;6.40;99.90
17632;DHT22;8934;51.194;17.150;2023-05-10T00:27:53;6.40;99.90
17632;DHT22;8934;51.194;17.150;2023-05-10T00:30:43;6.40;99.90
17632;DHT22;8934;51.194;17.150;2023-05-10T00:33:30;6.30;99.90
17632;DHT22;8934;51.194;17.150;2023-05-10T00:36:19;6.20;99.90
17632;DHT22;8934;51.194;17.150;2023-05-10T00:39:07;6.10;99.90
17632;DHT22;8934;51.194;17.150;2023-05-10T00:41:54;6.00;99.90
17632;DHT22;8934;51.194;17.150;2023-05-10T00:44:42;6.00;99.90
17632;DHT22;8934;51.194;17.150;2023-05-10T00:47:29;5.90;99.90
17632;DHT22;8934;51.194;17.150;2023-05-10T00:50:17;5.80;99.90
17632;DHT22;8934;51.194;17.150;2023-05-10T00:53:07;5.70;99.90
17632;DHT22;8934;51.194;17.150;2023-05-10T00:55:55;5.60;99.90
17632;DHT22;8934;51.194;17.150;2023-05-10T00:58:43;5.50;99.90
17632;DHT22;8934;51.194;17.150;2023-05-10T01:01:31;5.40;99.90
17632;DHT22;8934;51.194;17.150;2023-05-10T01:04:19;5.30;99.90
17632;DHT22;8934;51.194;17.150;2023-05-10T01:07:12;5.20;99.90
17632;DHT22;8934;51.194;17.150;2023-05-10T01:10:01;5.20;99.90
17632;DHT22;8934;51.194;17.150;2023-05-10T01:12:48;5.10;99.90
17632;DHT22;8934;51.194;17.150;2023-05-10T01:15:36;5.00;99.90
17632;DHT22;8934;51.194;17.150;2023-05-10T01:18:25;4.90;99.90
17632;DHT22;8934;51.194;17.150;2023-05-10T01:21:21;4.80;99.90
17632;DHT22;8934;51.194;17.150;2023-05-10T01:24:53;4.80;99.90
17632;DHT22;8934;51.194;17.150;2023-05-10T01:28:13;4.70;99.90
17632;DHT22;8934;51.194;17.150;2023-05-10T01:31:35;4.60;99.90
17632;DHT22;8934;51.194;17.150;2023-05-10T01:34:34;4.50;99.90
17632;DHT22;8934;51.194;17.150;2023-05-10T01:37:31;4.50;99.90
17632;DHT22;8934;51.194;17.150;2023-05-10T01:40:25;4.50;99.90
17632;DHT22;8934;51.194;17.150;2023-05-10T01:43:19;4.40;99.90
17632;DHT22;8934;51.194;17.150;2023-05-10T01:46:16;4.40;99.90
17632;DHT22;8934;51.194;17.150;2023-05-10T01:49:08;4.40;99.90
17632;DHT22;8934;51.194;17.150;2023-05-10T01:52:03;4.30;99.90
17632;DHT22;8934;51.194;17.150;2023-05-10T01:54:56;4.30;99.90
17632;DHT22;8934;51.194;17.150;2023-05-10T01:57:49;4.30;99.90
17632;DHT22;8934;51.194;17.150;2023-05-10T02:00:40;4.20;99.90
17632;DHT22;8934;51.194;17.150;2023-05-10T02:03:31;4.20;99.90
17632;DHT22;8934;51.194;17.150;2023-05-10T02:06:21;4.20;99.90
17632;DHT22;8934;51.194;17.150;2023-05-10T02:09:12;4.20;99.90
17632;DHT22;8934;51.194;17.150;2023-05-10T02:12:02;4.30;99.90
17632;DHT22;8934;51.194;17.150;2023-05-10T02:14:52;4.30;99.90
17632;DHT22;8934;51.194;17.150;2023-05-10T02:17:42;4.30;99.90
17632;DHT22;8934;51.194;17.150;2023-05-10T02:20:31;4.40;99.90
17632;DHT22;8934;51.194;17.150;2023-05-10T02:23:20;4.40;99.90
17632;DHT22;8934;51.194;17.150;2023-05-10T02:26:10;4.40;99.90
17632;DHT22;8934;51.194;17.150;2023-05-10T02:29:01;4.30;99.90
17632;DHT22;8934;51.194;17.150;2023-05-10T02:31:51;4.30;99.90
17632;DHT22;8934;51.194;17.150;2023-05-10T02:34:40;4.30;99.90
17632;DHT22;8934;51.194;17.150;2023-05-10T02:37:29;4.20;99.90
17632;DHT22;8934;51.194;17.150;2023-05-10T02:40:18;4.20;99.90
17632;DHT22;8934;51.194;17.150;2023-05-10T02:43:11;4.20;99.90
17632;DHT22;8934;51.194;17.150;2023-05-10T02:46:00;4.30;99.90
17632;DHT22;8934;51.194;17.150;2023-05-10T02:48:47;4.30;99.90
17632;DHT22;8934;51.194;17.150;2023-05-10T02:51:39;4.40;99.90
17632;DHT22;8934;51.194;17.150;2023-05-10T02:54:31;4.40;99.90
17632;DHT22;8934;51.194;17.150;2023-05-10T02:57:26;4.50;99.90
17632;DHT22;8934;51.194;17.150;2023-05-10T03:00:16;4.50;99.90
17632;DHT22;8934;51.194;17.150;2023-05-10T03:03:04;4.70;99.90
17632;DHT22;8934;51.194;17.150;2023-05-10T03:05:52;4.80;99.90
17632;DHT22;8934;51.194;17.150;2023-05-10T03:08:42;4.80;99.90
17632;DHT22;8934;51.194;17.150;2023-05-10T03:11:48;4.90;99.90
17632;DHT22;8934;51.194;17.150;2023-05-10T03:14:49;4.90;99.90
17632;DHT22;8934;51.194;17.150;2023-05-10T03:17:47;5.00;99.90
17632;DHT22;8934;51.194;17.150;2023-05-10T03:20:38;5.10;99.90
17632;DHT22;8934;51.194;17.150;2023-05-10T03:23:35;5.20;99.90
17632;DHT22;8934;51.194;17.150;2023-05-10T03:26:24;5.30;99.90
17632;DHT22;8934;51.194;17.150;2023-05-10T03:29:22;5.40;99.90
17632;DHT22;8934;51.194;17.150;2023-05-10T03:32:10;5.50;99.90
17632;DHT22;8934;51.194;17.150;2023-05-10T03:34:59;5.60;99.90
17632;DHT22;8934;51.194;17.150;2023-05-10T03:37:48;5.70;99.90
17632;DHT22;8934;51.194;17.150;2023-05-10T03:40:36;5.80;99.90
17632;DHT22;8934;51.194;17.150;2023-05-10T03:43:23;5.90;99.90
17632;DHT22;8934;51.194;17.150;2023-05-10T03:46:11;5.90;99.90
17632;DHT22;8934;51.194;17.150;2023-05-10T03:48:59;6.10;99.90
17632;DHT22;8934;51.194;17.150;2023-05-10T03:51:48;6.10;99.90
17632;DHT22;8934;51.194;17.150;2023-05-10T03:54:36;6.20;99.90
17632;DHT22;8934;51.194;17.150;2023-05-10T03:57:24;6.30;99.90
17632;DHT22;8934;51.194;17.150;2023-05-10T04:00:13;6.40;99.90
17632;DHT22;8934;51.194;17.150;2023-05-10T04:03:01;6.40;99.90
17632;DHT22;8934;51.194;17.150;2023-05-10T04:05:48;6.50;99.90
17632;DHT22;8934;51.194;17.150;2023-05-10T04:08:37;6.60;99.90
17632;DHT22;8934;51.194;17.150;2023-05-10T04:11:25;6.70;99.90
17632;DHT22;8934;51.194;17.150;2023-05-10T04:14:13;6.80;99.90
17632;DHT22;8934;51.194;17.150;2023-05-10T04:17:00;6.90;99.90
17632;DHT22;8934;51.194;17.150;2023-05-10T04:19:48;7.00;99.90
17632;DHT22;8934;51.194;17.150;2023-05-10T04:22:35;7.10;99.90
17632;DHT22;8934;51.194;17.150;2023-05-10T04:25:24;7.20;99.90
17632;DHT22;8934;51.194;17.150;2023-05-10T04:28:12;7.30;99.90
17632;DHT22;8934;51.194;17.150;2023-05-10T04:31:03;7.40;99.90
17632;DHT22;8934;51.194;17.150;2023-05-10T04:33:51;7.50;99.90
17632;DHT22;8934;51.194;17.150;2023-05-10T04:36:39;7.60;99.90
17632;DHT22;8934;51.194;17.150;2023-05-10T04:39:26;7.70;99.90
17632;DHT22;8934;51.194;17.150;2023-05-10T04:42:15;7.80;99.90
17632;DHT22;8934;51.194;17.150;2023-05-10T04:45:03;7.90;99.90
17632;DHT22;8934;51.194;17.150;2023-05-10T04:47:51;8.00;99.90
17632;DHT22;8934;51.194;17.150;2023-05-10T04:50:39;8.20;99.90
17632;DHT22;8934;51.194;17.150;2023-05-10T04:53:26;8.30;99.90
17632;DHT22;8934;51.194;17.150;2023-05-10T04:56:14;8.40;99.90
17632;DHT22;8934;51.194;17.150;2023-05-10T04:59:03;8.60;99.90
17632;DHT22;8934;51.194;17.150;2023-05-10T05:01:51;8.70;99.90
17632;DHT22;8934;51.194;17.150;2023-05-10T05:04:39;8.80;99.90
17632;DHT22;8934;51.194;17.150;2023-05-10T05:07:26;8.90;99.90
17632;DHT22;8934;51.194;17.150;2023-05-10T05:10:14;9.00;99.90
17632;DHT22;8934;51.194;17.150;2023-05-10T05:13:02;9.20;99.90
17632;DHT22;8934;51.194;17.150;2023-05-10T05:15:51;9.30;99.90
17632;DHT22;8934;51.194;17.150;2023-05-10T05:18:40;9.50;99.90
17632;DHT22;8934;51.194;17.150;2023-05-10T05:21:27;9.60;99.90
17632;DHT22;8934;51.194;17.150;2023-05-10T05:24:15;9.70;99.90
17632;DHT22;8934;51.194;17.150;2023-05-10T05:27:02;9.80;99.90
17632;DHT22;8934;51.194;17.150;2023-05-10T05:29:52;9.90;99.90
17632;DHT22;8934;51.194;17.150;2023-05-10T05:32:40;10.00;99.90
17632;DHT22;8934;51.194;17.150;2023-05-10T05:35:28;10.20;99.90
17632;DHT22;8934;51.194;17.150;2023-05-10T05:38:16;10.30;99.90
17632;DHT22;8934;51.194;17.150;2023-05-10T05:41:04;10.50;99.90
17632;DHT22;8934;51.194;17.150;2023-05-10T05:43:52;10.60;99.90
17632;DHT22;8934;51.194;17.150;2023-05-10T05:46:40;10.80;99.90
17632;DHT22;8934;51.194;17.150;2023-05-10T05:49:29;10.90;99.90
17632;DHT22;8934;51.194;17.150;2023-05-10T05:52:16;11.00;99.90
17632;DHT22;8934;51.194;17.150;2023-05-10T05:55:04;11.20;99.90
17632;DHT22;8934;51.194;17.150;2023-05-10T05:57:52;11.40;99.90
17632;DHT22;8934;51.194;17.150;2023-05-10T06:00:40;11.50;99.90
17632;DHT22;8934;51.194;17.150;2023-05-10T06:03:28;11.70;99.90
17632;DHT22;8934;51.194;17.150;2023-05-10T06:06:17;11.80;99.90
17632;DHT22;8934;51.194;17.150;2023-05-10T06:09:04;12.00;99.90
17632;DHT22;8934;51.194;17.150;2023-05-10T06:11:52;12.10;99.90
17632;DHT22;8934;51.194;17.150;2023-05-10T06:14:40;12.30;99.90
17632;DHT22;8934;51.194;17.150;2023-05-10T06:17:27;12.50;99.90
17632;DHT22;8934;51.194;17.150;2023-05-10T06:20:15;12.60;99.90
17632;DHT22;8934;51.194;17.150;2023-05-10T06:23:04;12.80;99.90
17632;DHT22;8934;51.194;17.150;2023-05-10T06:25:52;13.00;99.90
17632;DHT22;8934;51.194;17.150;2023-05-10T06:28:39;13.20;99.90
17632;DHT22;8934;51.194;17.150;2023-05-10T06:31:27;13.30;99.90
17632;DHT22;8934;51.194;17.150;2023-05-10T06:34:14;13.40;99.90
17632;DHT22;8934;51.194;17.150;2023-05-10T06:37:02;13.60;99.90
17632;DHT22;8934;51.194;17.150;2023-05-10T06:39:51;13.80;99.90
17632;DHT22;8934;51.194;17.150;2023-05-10T06:42:39;14.00;99.90
17632;DHT22;8934;51.194;17.150;2023-05-10T06:45:27;14.10;99.90
17632;DHT22;8934;51.194;17.150;2023-05-10T06:48:15;14.10;99.90
17632;DHT22;8934;51.194;17.150;2023-05-10T06:51:03;14.30;99.90
17632;DHT22;8934;51.194;17.150;2023-05-10T06:53:50;14.50;99.90
17632;DHT22;8934;51.194;17.150;2023-05-10T06:56:39;14.70;99.90
17632;DHT22;8934;51.194;17.150;2023-05-10T06:59:27;14.90;99.90
17632;DHT22;8934;51.194;17.150;2023-05-10T07:02:14;15.00;99.90
17632;DHT22;8934;51.194;17.150;2023-05-10T07:05:03;15.20;99.90
17632;DHT22;8934;51.194;17.150;2023-05-10T07:07:50;15.40;99.90
17632;DHT22;8934;51.194;17.150;2023-05-10T07:10:39;15.60;99.90
17632;DHT22;8934;51.194;17.150;2023-05-10T07:13:27;15.90;99.90
17632;DHT22;8934;51.194;17.150;2023-05-10T07:16:15;16.00;99.90
17632;DHT22;8934;51.194;17.150;2023-05-10T07:19:03;16.00;99.90
17632;DHT22;8934;51.194;17.150;2023-05-10T07:21:51;16.20;99.90
17632;DHT22;8934;51.194;17.150;2023-05-10T07:24:38;16.30;99.90
17632;DHT22;8934;51.194;17.150;2023-05-10T07:27:26;16.50;99.90
17632;DHT22;8934;51.194;17.150;2023-05-10T07:30:15;16.70;99.90
17632;DHT22;8934;51.194;17.150;2023-05-10T07:33:02;16.70;99.90
17632;DHT22;8934;51.194;17.150;2023-05-10T07:35:50;16.90;99.90
17632;DHT22;8934;51.194;17.150;2023-05-10T07:38:37;17.10;99.90
17632;DHT22;8934;51.194;17.150;2023-05-10T07:41:26;17.20;99.90
17632;DHT22;8934;51.194;17.150;2023-05-10T07:44:14;17.30;99.90
17632;DHT22;8934;51.194;17.150;2023-05-10T07:47:05;17.40;99.90
17632;DHT22;8934;51.194;17.150;2023-05-10T07:49:53;17.40;99.90
17632;DHT22;8934;51.194;17.150;2023-05-10T07:52:40;17.60;99.90
17632;DHT22;8934;51.194;17.150;2023-05-10T07:55:28;17.80;99.90
17632;DHT22;8934;51.194;17.150;2023-05-10T07:58:16;17.90;99.90
17632;DHT22;8934;51.194;17.150;2023-05-10T08:01:03;18.20;99.90
17632;DHT22;8934;51.194;17.150;2023-05-10T08:03:52;18.20;99.90
17632;DHT22;8934;51.194;17.150;2023-05-10T08:06:40;18.30;99.90
17632;DHT22;8934;51.194;17.150;2023-05-10T08:09:28;18.50;99.90
17632;DHT22;8934;51.194;17.150;2023-05-10T08:12:15;18.70;99.90
17632;DHT22;8934;51.194;17.150;2023-05-10T08:15:03;18.90;99.90
17632;DHT22;8934;51.194;17.150;2023-05-10T08:17:51;19.00;99.90
17632;DHT22;8934;51.194;17.150;2023-05-10T08:20:40;19.00;99.90
17632;DHT22;8934;51.194;17.150;2023-05-10T08:23:28;19.20;99.90
17632;DHT22;8934;51.194;17.150;2023-05-10T08:26:15;19.30;99.90
17632;DHT22;8934;51.194;17.150;2023-05-10T08:29:03;19.50;99.90
17632;DHT22;8934;51.194;17.150;2023-05-10T08:31:51;19.70;99.90
17632;DHT22;8934;51.194;17.150;2023-05-10T08:34:38;19.90;99.90
17632;DHT22;8934;51.194;17.150;2023-05-10T08:37:29;20.10;99.90
17632;DHT22;8934;51.194;17.150;2023-05-10T08:40:19;20.20;99.90
17632;DHT22;8934;51.194;17.150;2023-05-10T08:43:08;20.20;99.90
17632;DHT22;8934;51.194;17.150;2023-05-10T08:45:56;20.30;99.90
17632;DHT22;8934;51.194;17.150;2023-05-10T08:48:49;20.50;99.90
17632;DHT22;8934;51.194;17.150;2023-05-10T08:51:40;20.60;99.90
17632;DHT22;8934;51.194;17.150;2023-05-10T08:54:33;20.70;99.90
17632;DHT22;8934;51.194;17.150;2023-05-10T08:57:21;20.80;99.90
17632;DHT22;8934;51.194;17.150;2023-05-10T09:00:10;21.00;99.90
17632;DHT22;8934;51.194;17.150;2023-05-10T09:02:58;21.00;99.40
17632;DHT22;8934;51.194;17.150;2023-05-10T09:05:47;21.00;99.90
17632;DHT22;8934;51.194;17.150;2023-05-10T09:08:36;21.30;99.20
17632;DHT22;8934;51.194;17.150;2023-05-10T09:11:25;21.50;98.30
17632;DHT22;8934;51.194;17.150;2023-05-10T09:14:15;21.60;98.60
17632;DHT22;8934;51.194;17.150;2023-05-10T09:17:04;21.70;98.80
17632;DHT22;8934;51.194;17.150;2023-05-10T09:19:58;22.00;98.80
17632;DHT22;8934;51.194;17.150;2023-05-10T09:22:46;22.20;98.10
17632;DHT22;8934;51.194;17.150;2023-05-10T09:25:34;22.30;97.20
17632;DHT22;8934;51.194;17.150;2023-05-10T09:28:23;22.30;96.70
17632;DHT22;8934;51.194;17.150;2023-05-10T09:31:10;22.40;95.90
17632;DHT22;8934;51.194;17.150;2023-05-10T09:33:58;22.20;95.70
17632;DHT22;8934;51.194;17.150;2023-05-10T09:36:54;22.20;93.90
17632;DHT22;8934;51.194;17.150;2023-05-10T09:39:42;21.80;95.80
17632;DHT22;8934;51.194;17.150;2023-05-10T09:42:29;21.40;95.70
17632;DHT22;8934;51.194;17.150;2023-05-10T09:45:19;21.00;95.90
17632;DHT22;8934;51.194;17.150;2023-05-10T09:48:06;21.00;97.70
17632;DHT22;8934;51.194;17.150;2023-05-10T09:50:56;21.60;96.70
17632;DHT22;8934;51.194;17.150;2023-05-10T09:53:44;22.00;95.60
17632;DHT22;8934;51.194;17.150;2023-05-10T09:56:33;22.40;95.90
17632;DHT22;8934;51.194;17.150;2023-05-10T09:59:21;22.60;95.20
17632;DHT22;8934;51.194;17.150;2023-05-10T10:02:10;22.80;93.80
17632;DHT22;8934;51.194;17.150;2023-05-10T10:04:58;23.00;92.70
17632;DHT22;8934;51.194;17.150;2023-05-10T10:07:48;22.90;92.50
17632;DHT22;8934;51.194;17.150;2023-05-10T10:10:36;23.00;93.70
17632;DHT22;8934;51.194;17.150;2023-05-10T10:13:24;23.10;94.00
17632;DHT22;8934;51.194;17.150;2023-05-10T10:16:12;23.40;91.70
17632;DHT22;8934;51.194;17.150;2023-05-10T10:19:02;23.50;93.10
17632;DHT22;8934;51.194;17.150;2023-05-10T10:21:50;23.50;90.50
17632;DHT22;8934;51.194;17.150;2023-05-10T10:24:37;23.20;90.30
17632;DHT22;8934;51.194;17.150;2023-05-10T10:27:32;23.00;92.30
17632;DHT22;8934;51.194;17.150;2023-05-10T10:30:27;23.40;91.40
17632;DHT22;8934;51.194;17.150;2023-05-10T10:33:33;23.70;90.90
17632;DHT22;8934;51.194;17.150;2023-05-10T10:36:25;23.90;90.10
17632;DHT22;8934;51.194;17.150;2023-05-10T10:39:14;24.10;90.60
17632;DHT22;8934;51.194;17.150;2023-05-10T10:42:02;24.10;90.90
17632;DHT22;8934;51.194;17.150;2023-05-10T10:44:50;24.20;90.50
17632;DHT22;8934;51.194;17.150;2023-05-10T10:48:20;24.30;88.30
17632;DHT22;8934;51.194;17.150;2023-05-10T10:51:08;24.20;89.80
17632;DHT22;8934;51.194;17.150;2023-05-10T10:54:09;24.40;90.10
17632;DHT22;8934;51.194;17.150;2023-05-10T10:57:13;24.00;90.00
17632;DHT22;8934;51.194;17.150;2023-05-10T11:00:21;24.00;90.40
17632;DHT22;8934;51.194;17.150;2023-05-10T11:03:10;24.20;89.60
17632;DHT22;8934;51.194;17.150;2023-05-10T11:06:00;24.60;88.40
17632;DHT22;8934;51.194;17.150;2023-05-10T11:08:48;25.00;87.90
17632;DHT22;8934;51.194;17.150;2023-05-10T11:11:48;25.40;86.70
17632;DHT22;8934;51.194;17.150;2023-05-10T11:14:37;25.30;83.80
17632;DHT22;8934;51.194;17.150;2023-05-10T11:17:24;25.00;86.50
17632;DHT22;8934;51.194;17.150;2023-05-10T11:20:14;24.60;85.00
17632;DHT22;8934;51.194;17.150;2023-05-10T11:23:11;24.10;88.10
17632;DHT22;8934;51.194;17.150;2023-05-10T11:26:01;24.30;90.20
17632;DHT22;8934;51.194;17.150;2023-05-10T11:28:53;24.70;88.00
17632;DHT22;8934;51.194;17.150;2023-05-10T11:31:42;24.50;85.70
17632;DHT22;8934;51.194;17.150;2023-05-10T11:34:32;24.00;86.50
17632;DHT22;8934;51.194;17.150;2023-05-10T11:37:21;23.50;86.90
17632;DHT22;8934;51.194;17.150;2023-05-10T11:40:09;22.90;89.10
17632;DHT22;8934;51.194;17.150;2023-05-10T11:42:57;22.40;88.50
17632;DHT22;8934;51.194;17.150;2023-05-10T11:45:46;22.50;90.60
17632;DHT22;8934;51.194;17.150;2023-05-10T11:48:34;23.20;90.80
17632;DHT22;8934;51.194;17.150;2023-05-10T11:51:23;23.90;86.70
17632;DHT22;8934;51.194;17.150;2023-05-10T11:54:11;23.90;85.60
17632;DHT22;8934;51.194;17.150;2023-05-10T11:56:59;24.10;86.40
17632;DHT22;8934;51.194;17.150;2023-05-10T11:59:47;24.10;88.30
17632;DHT22;8934;51.194;17.150;2023-05-10T12:02:38;24.00;86.30
17632;DHT22;8934;51.194;17.150;2023-05-10T12:05:26;24.30;88.30
17632;DHT22;8934;51.194;17.150;2023-05-10T12:08:14;24.60;83.50
17632;DHT22;8934;51.194;17.150;2023-05-10T12:11:07;24.60;85.60
17632;DHT22;8934;51.194;17.150;2023-05-10T12:13:55;25.10;86.30
17632;DHT22;8934;51.194;17.150;2023-05-10T12:16:43;25.70;86.90
17632;DHT22;8934;51.194;17.150;2023-05-10T12:19:38;26.10;82.80
17632;DHT22;8934;51.194;17.150;2023-05-10T12:22:26;26.30;77.40
17632;DHT22;8934;51.194;17.150;2023-05-10T12:25:14;26.00;79.20
17632;DHT22;8934;51.194;17.150;2023-05-10T12:28:04;25.30;79.70
17632;DHT22;8934;51.194;17.150;2023-05-10T12:31:09;25.30;83.00
17632;DHT22;8934;51.194;17.150;2023-05-10T12:33:56;25.70;79.60
17632;DHT22;8934;51.194;17.150;2023-05-10T12:36:45;25.60;78.10
17632;DHT22;8934;51.194;17.150;2023-05-10T12:39:41;25.70;79.40
17632;DHT22;8934;51.194;17.150;2023-05-10T12:42:28;25.90;80.40
17632;DHT22;8934;51.194;17.150;2023-05-10T12:45:17;26.00;77.50
17632;DHT22;8934;51.194;17.150;2023-05-10T12:48:05;25.50;76.90
17632;DHT22;8934;51.194;17.150;2023-05-10T12:50:53;24.70;80.30
17632;DHT22;8934;51.194;17.150;2023-05-10T12:53:41;24.60;82.00
17632;DHT22;8934;51.194;17.150;2023-05-10T12:56:34;25.20;80.80
17632;DHT22;8934;51.194;17.150;2023-05-10T12:59:23;25.10;77.80
17632;DHT22;8934;51.194;17.150;2023-05-10T13:02:11;25.00;78.70
17632;DHT22;8934;51.194;17.150;2023-05-10T13:04:58;25.10;77.10
17632;DHT22;8934;51.194;17.150;2023-05-10T13:07:46;24.50;75.50
17632;DHT22;8934;51.194;17.150;2023-05-10T13:10:35;23.80;78.30
17632;DHT22;8934;51.194;17.150;2023-05-10T13:13:23;23.30;81.20
17632;DHT22;8934;51.194;17.150;2023-05-10T13:16:10;23.00;83.10
17632;DHT22;8934;51.194;17.150;2023-05-10T13:18:57;23.50;87.40
17632;DHT22;8934;51.194;17.150;2023-05-10T13:21:45;24.50;83.60
17632;DHT22;8934;51.194;17.150;2023-05-10T13:24:33;25.00;79.60
17632;DHT22;8934;51.194;17.150;2023-05-10T13:27:21;25.10;79.80
17632;DHT22;8934;51.194;17.150;2023-05-10T13:30:10;25.50;78.50
17632;DHT22;8934;51.194;17.150;2023-05-10T13:32:58;25.30;76.80
17632;DHT22;8934;51.194;17.150;2023-05-10T13:35:45;24.70;79.20
17632;DHT22;8934;51.194;17.150;2023-05-10T13:38:33;24.20;78.70
17632;DHT22;8934;51.194;17.150;2023-05-10T13:41:20;24.00;78.70
17632;DHT22;8934;51.194;17.150;2023-05-10T13:44:11;23.60;79.00
17632;DHT22;8934;51.194;17.150;2023-05-10T13:46:58;23.80;81.80
17632;DHT22;8934;51.194;17.150;2023-05-10T13:49:46;24.60;80.50
17632;DHT22;8934;51.194;17.150;2023-05-10T13:52:34;25.50;79.90
17632;DHT22;8934;51.194;17.150;2023-05-10T13:55:21;26.20;76.20
17632;DHT22;8934;51.194;17.150;2023-05-10T13:58:09;26.50;74.60
17632;DHT22;8934;51.194;17.150;2023-05-10T14:00:58;26.30;76.50
17632;DHT22;8934;51.194;17.150;2023-05-10T14:03:45;26.10;74.30
17632;DHT22;8934;51.194;17.150;2023-05-10T14:06:34;25.50;75.30
17632;DHT22;8934;51.194;17.150;2023-05-10T14:09:22;25.00;75.50
17632;DHT22;8934;51.194;17.150;2023-05-10T14:12:10;24.80;74.70
17632;DHT22;8934;51.194;17.150;2023-05-10T14:14:57;24.60;77.80
17632;DHT22;8934;51.194;17.150;2023-05-10T14:17:46;24.40;77.20
17632;DHT22;8934;51.194;17.150;2023-05-10T14:20:34;24.30;76.30
17632;DHT22;8934;51.194;17.150;2023-05-10T14:23:22;24.80;77.30
17632;DHT22;8934;51.194;17.150;2023-05-10T14:26:11;25.40;75.70
17632;DHT22;8934;51.194;17.150;2023-05-10T14:28:58;26.00;75.70
17632;DHT22;8934;51.194;17.150;2023-05-10T14:31:46;26.60;74.60
17632;DHT22;8934;51.194;17.150;2023-05-10T14:34:35;26.50;72.40
17632;DHT22;8934;51.194;17.150;2023-05-10T14:37:22;26.10;72.70
17632;DHT22;8934;51.194;17.150;2023-05-10T14:40:11;26.20;71.10
17632;DHT22;8934;51.194;17.150;2023-05-10T14:43:00;26.70;72.50
17632;DHT22;8934;51.194;17.150;2023-05-10T14:45:48;27.40;70.70
17632;DHT22;8934;51.194;17.150;2023-05-10T14:48:35;27.80;70.50
17632;DHT22;8934;51.194;17.150;2023-05-10T14:51:24;27.80;68.60
17632;DHT22;8934;51.194;17.150;2023-05-10T14:54:12;26.90;67.50
17632;DHT22;8934;51.194;17.150;2023-05-10T14:56:59;26.00;71.60
17632;DHT22;8934;51.194;17.150;2023-05-10T14:59:47;26.10;72.10
17632;DHT22;8934;51.194;17.150;2023-05-10T15:02:35;26.40;72.90
17632;DHT22;8934;51.194;17.150;2023-05-10T15:05:24;26.40;70.40
17632;DHT22;8934;51.194;17.150;2023-05-10T15:08:14;25.90;71.70
17632;DHT22;8934;51.194;17.150;2023-05-10T15:11:01;25.20;73.00
17632;DHT22;8934;51.194;17.150;2023-05-10T15:13:49;24.30;74.20
17632;DHT22;8934;51.194;17.150;2023-05-10T15:16:36;23.50;76.40
17632;DHT22;8934;51.194;17.150;2023-05-10T15:19:24;23.10;78.90
17632;DHT22;8934;51.194;17.150;2023-05-10T15:22:12;23.60;76.60
17632;DHT22;8934;51.194;17.150;2023-05-10T15:25:01;23.90;76.00
17632;DHT22;8934;51.194;17.150;2023-05-10T15:27:49;24.40;76.70
17632;DHT22;8934;51.194;17.150;2023-05-10T15:30:37;24.50;75.30
17632;DHT22;8934;51.194;17.150;2023-05-10T15:33:24;24.50;74.70
17632;DHT22;8934;51.194;17.150;2023-05-10T15:36:13;24.50;75.20
17632;DHT22;8934;51.194;17.150;2023-05-10T15:39:01;25.10;75.00
17632;DHT22;8934;51.194;17.150;2023-05-10T15:41:51;25.50;74.40
17632;DHT22;8934;51.194;17.150;2023-05-10T15:44:38;25.80;71.30
17632;DHT22;8934;51.194;17.150;2023-05-10T15:47:26;25.40;72.20
17632;DHT22;8934;51.194;17.150;2023-05-10T15:50:14;24.90;73.90
17632;DHT22;8934;51.194;17.150;2023-05-10T15:53:02;24.60;73.60
17632;DHT22;8934;51.194;17.150;2023-05-10T15:55:49;24.50;73.90
17632;DHT22;8934;51.194;17.150;2023-05-10T15:58:40;24.70;73.80
17632;DHT22;8934;51.194;17.150;2023-05-10T16:01:29;25.00;73.80
17632;DHT22;8934;51.194;17.150;2023-05-10T16:04:17;25.20;73.40
17632;DHT22;8934;51.194;17.150;2023-05-10T16:07:05;25.00;72.80
17632;DHT22;8934;51.194;17.150;2023-05-10T16:09:53;24.70;72.70
17632;DHT22;8934;51.194;17.150;2023-05-10T16:12:40;24.40;73.90
17632;DHT22;8934;51.194;17.150;2023-05-10T16:15:30;24.20;73.70
17632;DHT22;8934;51.194;17.150;2023-05-10T16:18:17;24.40;73.50
17632;DHT22;8934;51.194;17.150;2023-05-10T16:21:05;24.30;73.70
17632;DHT22;8934;51.194;17.150;2023-05-10T16:23:53;24.20;74.20
17632;DHT22;8934;51.194;17.150;2023-05-10T16:26:41;24.10;76.30
17632;DHT22;8934;51.194;17.150;2023-05-10T16:29:28;23.80;76.00
17632;DHT22;8934;51.194;17.150;2023-05-10T16:32:18;23.40;77.20
17632;DHT22;8934;51.194;17.150;2023-05-10T16:35:07;22.90;78.30
17632;DHT22;8934;51.194;17.150;2023-05-10T16:37:55;22.50;79.60
17632;DHT22;8934;51.194;17.150;2023-05-10T16:40:43;22.10;80.00
17632;DHT22;8934;51.194;17.150;2023-05-10T16:43:32;21.70;81.50
17632;DHT22;8934;51.194;17.150;2023-05-10T16:46:19;21.40;83.20
17632;DHT22;8934;51.194;17.150;2023-05-10T16:49:09;21.20;82.80
17632;DHT22;8934;51.194;17.150;2023-05-10T16:51:57;21.10;83.50
17632;DHT22;8934;51.194;17.150;2023-05-10T16:54:46;21.10;83.40
17632;DHT22;8934;51.194;17.150;2023-05-10T16:57:33;20.90;84.40
17632;DHT22;8934;51.194;17.150;2023-05-10T17:00:21;20.70;85.10
17632;DHT22;8934;51.194;17.150;2023-05-10T17:03:09;20.40;85.30
17632;DHT22;8934;51.194;17.150;2023-05-10T17:05:58;20.20;86.40
17632;DHT22;8934;51.194;17.150;2023-05-10T17:08:46;20.20;86.90
17632;DHT22;8934;51.194;17.150;2023-05-10T17:11:33;20.20;89.20
17632;DHT22;8934;51.194;17.150;2023-05-10T17:14:21;20.20;89.60
17632;DHT22;8934;51.194;17.150;2023-05-10T17:17:09;20.20;89.80
17632;DHT22;8934;51.194;17.150;2023-05-10T17:19:57;20.10;89.40
17632;DHT22;8934;51.194;17.150;2023-05-10T17:22:48;20.00;88.60
17632;DHT22;8934;51.194;17.150;2023-05-10T17:25:35;19.90;90.30
17632;DHT22;8934;51.194;17.150;2023-05-10T17:28:23;19.80;89.70
17632;DHT22;8934;51.194;17.150;2023-05-10T17:31:10;19.60;90.10
17632;DHT22;8934;51.194;17.150;2023-05-10T17:33:58;19.40;90.00
17632;DHT22;8934;51.194;17.150;2023-05-10T17:36:50;19.30;90.40
17632;DHT22;8934;51.194;17.150;2023-05-10T17:39:39;19.20;91.30
17632;DHT22;8934;51.194;17.150;2023-05-10T17:42:27;19.00;91.80
17632;DHT22;8934;51.194;17.150;2023-05-10T17:45:14;18.90;91.60
17632;DHT22;8934;51.194;17.150;2023-05-10T17:48:03;18.80;91.70
17632;DHT22;8934;51.194;17.150;2023-05-10T17:50:50;18.70;92.40
17632;DHT22;8934;51.194;17.150;2023-05-10T17:53:38;18.50;92.70
17632;DHT22;8934;51.194;17.150;2023-05-10T17:56:28;18.50;92.80